createdAt,value
2023-04-11T00:00:11.568Z,2.39
2023-04-11T00:00:37.455Z,2.39
2023-04-11T00:00:59.198Z,2.39
2023-04-11T00:01:30.450Z,2.39
2023-04-11T00:02:02.685Z,2.39
2023-04-11T00:02:34.668Z,2.39
2023-04-11T00:03:06.727Z,2.39
2023-04-11T00:03:38.785Z,2.39
2023-04-11T00:04:10.794Z,2.39
2023-04-11T00:04:37.074Z,2.39
2023-04-11T00:04:59.189Z,2.39
2023-04-11T00:05:31.248Z,2.39
2023-04-11T00:06:03.141Z,2.39
2023-04-11T00:06:34.492Z,2.14
2023-04-11T00:07:06.586Z,2.24
2023-04-11T00:07:38.498Z,2.50
2023-04-11T00:08:11.304Z,2.50
2023-04-11T00:08:36.652Z,2.50
2023-04-11T00:08:58.582Z,2.50
2023-04-11T00:09:30.657Z,2.74
2023-04-11T00:10:04.478Z,2.74
2023-04-11T00:10:34.482Z,2.50
2023-04-11T00:11:06.639Z,2.74
2023-04-11T00:11:38.440Z,2.74
2023-04-11T00:12:10.850Z,2.50
2023-04-11T00:12:36.701Z,2.50
2023-04-11T00:12:58.547Z,2.50
2023-04-11T00:13:30.571Z,2.50
2023-04-11T00:14:02.638Z,2.50
2023-04-11T00:14:34.576Z,2.50
2023-04-11T00:15:08.313Z,2.74
2023-04-11T00:15:38.603Z,2.50
2023-04-11T00:16:10.769Z,2.50
2023-04-11T00:16:36.683Z,2.50
2023-04-11T00:16:58.786Z,2.74
2023-04-11T00:17:30.519Z,2.50
2023-04-11T00:18:02.836Z,2.74
2023-04-11T00:18:34.493Z,2.74
2023-04-11T00:19:06.573Z,2.96
2023-04-11T00:19:38.565Z,2.74
2023-04-11T00:20:11.154Z,2.86
2023-04-11T00:20:36.661Z,2.86
2023-04-11T00:20:58.901Z,2.63
2023-04-11T00:21:30.660Z,2.63
2023-04-11T00:22:02.752Z,2.63
2023-04-11T00:22:35.358Z,2.86
2023-04-11T00:23:06.550Z,2.63
2023-04-11T00:23:38.457Z,2.81
2023-04-11T00:24:11.069Z,2.81
2023-04-11T00:24:37.004Z,2.81
2023-04-11T00:24:58.537Z,2.59
2023-04-11T00:25:31.032Z,2.59
2023-04-11T00:26:02.672Z,2.59
2023-04-11T00:26:34.529Z,3.05
2023-04-11T00:27:06.565Z,3.28
2023-04-11T00:27:38.842Z,3.28
2023-04-11T00:28:10.803Z,3.28
2023-04-11T00:28:37.109Z,3.05
2023-04-11T00:28:58.570Z,3.05
2023-04-11T00:29:30.556Z,3.18
2023-04-11T00:30:05.111Z,2.95
2023-04-11T00:30:34.641Z,2.95
2023-04-11T00:31:06.682Z,3.18
2023-04-11T00:31:38.482Z,3.18
2023-04-11T00:32:10.692Z,3.18
2023-04-11T00:32:37.151Z,3.18
2023-04-11T00:32:58.535Z,3.18
2023-04-11T00:33:30.611Z,3.18
2023-04-11T00:34:02.625Z,2.95
2023-04-11T00:34:34.918Z,3.51
2023-04-11T00:35:07.444Z,3.51
2023-04-11T00:35:38.754Z,3.51
2023-04-11T00:36:11.311Z,3.63
2023-04-11T00:36:38.102Z,3.63
2023-04-11T00:36:58.755Z,3.85
2023-04-11T00:37:30.905Z,3.85
2023-04-11T00:38:02.772Z,3.85
2023-04-11T00:38:34.561Z,3.75
2023-04-11T00:39:06.655Z,4.18
2023-04-11T00:39:38.594Z,3.85
2023-04-11T00:40:11.094Z,4.16
2023-04-11T00:40:36.825Z,4.16
2023-04-11T00:40:58.989Z,4.32
2023-04-11T00:41:30.720Z,4.01
2023-04-11T00:42:02.743Z,4.01
2023-04-11T00:42:34.682Z,4.11
2023-04-11T00:43:06.929Z,4.11
2023-04-11T00:43:38.584Z,4.11
2023-04-11T00:44:10.597Z,3.99
2023-04-11T00:44:36.624Z,4.20
2023-04-11T00:44:58.559Z,4.20
2023-04-11T00:45:31.716Z,4.29
2023-04-11T00:46:02.723Z,4.29
2023-04-11T00:46:34.856Z,4.29
2023-04-11T00:47:06.917Z,4.45
2023-04-11T00:47:38.636Z,4.34
2023-04-11T00:48:10.703Z,4.34
2023-04-11T00:48:37.327Z,4.24
2023-04-11T00:48:58.743Z,4.43
2023-04-11T00:49:30.835Z,4.12
2023-04-11T00:50:04.113Z,4.31
2023-04-11T00:50:34.565Z,4.21
2023-04-11T00:51:06.755Z,4.39
2023-04-11T00:51:38.666Z,4.35
2023-04-11T00:52:11.399Z,5.29
2023-04-11T00:52:37.154Z,5.19
2023-04-11T00:52:59.033Z,4.63
2023-04-11T00:53:30.743Z,4.53
2023-04-11T00:54:02.757Z,4.53
2023-04-11T00:54:34.516Z,4.71
2023-04-11T00:55:07.422Z,4.60
2023-04-11T00:55:38.584Z,4.60
2023-04-11T00:56:10.632Z,4.67
2023-04-11T00:56:36.667Z,4.67
2023-04-11T00:56:59.309Z,4.67
2023-04-11T00:57:30.762Z,4.81
2023-04-11T00:58:02.823Z,4.81
2023-04-11T00:58:34.699Z,4.81
2023-04-11T00:59:06.758Z,4.70
2023-04-11T00:59:38.637Z,4.88
2023-04-11T01:00:11.807Z,4.77
2023-04-11T01:00:36.711Z,4.77
2023-04-11T01:00:59.180Z,4.77
2023-04-11T01:01:31.233Z,4.66
2023-04-11T01:02:02.812Z,4.83
2023-04-11T01:02:34.690Z,4.83
2023-04-11T01:03:06.926Z,4.83
2023-04-11T01:03:38.787Z,4.72
2023-04-11T01:04:10.815Z,4.72
2023-04-11T01:04:36.633Z,4.72
2023-04-11T01:04:58.674Z,4.85
2023-04-11T01:05:31.357Z,4.85
2023-04-11T01:06:02.689Z,4.85
2023-04-11T01:06:34.635Z,4.85
2023-04-11T01:07:06.663Z,4.75
2023-04-11T01:07:38.570Z,4.75
2023-04-11T01:08:10.953Z,4.75
2023-04-11T01:08:36.705Z,4.75
2023-04-11T01:08:58.842Z,4.75
2023-04-11T01:09:30.710Z,4.64
2023-04-11T01:10:04.475Z,4.64
2023-04-11T01:10:34.693Z,4.64
2023-04-11T01:11:06.686Z,4.80
2023-04-11T01:11:38.918Z,4.80
2023-04-11T01:12:10.654Z,4.80
2023-04-11T01:12:36.655Z,4.80
2023-04-11T01:12:58.663Z,4.80
2023-04-11T01:13:30.708Z,4.98
2023-04-11T01:14:02.755Z,4.98
2023-04-11T01:14:34.958Z,4.98
2023-04-11T01:15:08.048Z,4.98
2023-04-11T01:15:38.565Z,4.86
2023-04-11T01:16:10.698Z,4.86
2023-04-11T01:16:36.650Z,4.86
2023-04-11T01:16:58.779Z,4.86
2023-04-11T01:17:30.637Z,4.86
2023-04-11T01:18:02.696Z,4.86
2023-04-11T01:18:34.817Z,4.93
2023-04-11T01:19:06.683Z,4.93
2023-04-11T01:19:38.608Z,4.93
2023-04-11T01:20:11.810Z,4.93
2023-04-11T01:20:36.937Z,4.93
2023-04-11T01:20:59.485Z,4.93
2023-04-11T01:21:30.656Z,4.75
2023-04-11T01:22:02.742Z,4.93
2023-04-11T01:22:34.704Z,4.93
2023-04-11T01:23:06.643Z,4.88
2023-04-11T01:23:38.765Z,4.88
2023-04-11T01:24:10.645Z,4.88
2023-04-11T01:24:36.728Z,4.88
2023-04-11T01:24:58.536Z,4.70
2023-04-11T01:25:31.179Z,4.70
2023-04-11T01:26:02.854Z,4.93
2023-04-11T01:26:34.621Z,4.75
2023-04-11T01:27:06.841Z,4.75
2023-04-11T01:27:39.320Z,4.75
2023-04-11T01:28:10.977Z,4.75
2023-04-11T01:28:36.664Z,4.75
2023-04-11T01:28:58.611Z,4.75
2023-04-11T01:29:30.714Z,4.93
2023-04-11T01:30:04.951Z,4.93
2023-04-11T01:30:34.671Z,4.93
2023-04-11T01:31:06.829Z,4.93
2023-04-11T01:31:38.718Z,4.93
2023-04-11T01:32:11.393Z,4.93
2023-04-11T01:32:37.033Z,4.93
2023-04-11T01:32:58.774Z,4.93
2023-04-11T01:33:30.736Z,5.09
2023-04-11T01:34:02.769Z,5.09
2023-04-11T01:34:34.617Z,5.04
2023-04-11T01:35:07.381Z,5.21
2023-04-11T01:35:38.771Z,5.21
2023-04-11T01:36:11.635Z,5.21
2023-04-11T01:36:36.587Z,5.21
2023-04-11T01:36:58.654Z,5.21
2023-04-11T01:37:30.642Z,5.10
2023-04-11T01:38:02.642Z,5.10
2023-04-11T01:38:34.994Z,5.10
2023-04-11T01:39:06.647Z,5.10
2023-04-11T01:39:38.546Z,5.10
2023-04-11T01:40:11.112Z,5.15
2023-04-11T01:40:36.642Z,5.15
2023-04-11T01:40:59.149Z,5.15
2023-04-11T01:41:30.581Z,5.15
2023-04-11T01:42:02.770Z,4.99
2023-04-11T01:42:34.746Z,4.99
2023-04-11T01:43:06.609Z,4.99
2023-04-11T01:43:38.481Z,4.99
2023-04-11T01:44:10.898Z,4.99
2023-04-11T01:44:36.660Z,4.99
2023-04-11T01:44:58.605Z,4.99
2023-04-11T01:45:31.605Z,4.99
2023-04-11T01:46:02.698Z,4.99
2023-04-11T01:46:34.594Z,4.99
2023-04-11T01:47:06.648Z,4.83
2023-04-11T01:47:39.121Z,4.94
2023-04-11T01:48:11.405Z,4.94
2023-04-11T01:48:36.671Z,4.94
2023-04-11T01:48:59.023Z,4.94
2023-04-11T01:49:30.656Z,4.94
2023-04-11T01:50:04.069Z,4.94
2023-04-11T01:50:34.525Z,4.94
2023-04-11T01:51:06.621Z,5.04
2023-04-11T01:51:38.554Z,5.04
2023-04-11T01:52:10.670Z,4.88
2023-04-11T01:52:36.703Z,4.88
2023-04-11T01:52:58.607Z,4.88
2023-04-11T01:53:30.562Z,4.88
2023-04-11T01:54:02.694Z,4.93
2023-04-11T01:54:34.535Z,4.93
2023-04-11T01:55:07.364Z,4.93
2023-04-11T01:55:38.611Z,4.93
2023-04-11T01:56:10.705Z,4.93
2023-04-11T01:56:36.696Z,4.93
2023-04-11T01:56:59.393Z,4.93
2023-04-11T01:57:30.670Z,5.04
2023-04-11T01:58:02.721Z,5.20
2023-04-11T01:58:34.651Z,5.20
2023-04-11T01:59:06.548Z,5.20
2023-04-11T01:59:38.792Z,5.20
2023-04-11T02:00:11.794Z,5.20
2023-04-11T02:00:36.714Z,5.20
2023-04-11T02:00:59.373Z,5.20
2023-04-11T02:01:30.665Z,5.20
2023-04-11T02:02:02.790Z,5.20
2023-04-11T02:02:34.748Z,5.20
2023-04-11T02:03:06.692Z,5.20
2023-04-11T02:03:38.739Z,5.20
2023-04-11T02:04:10.776Z,5.36
2023-04-11T02:04:36.633Z,5.36
2023-04-11T02:04:58.518Z,5.09
2023-04-11T02:05:31.009Z,5.09
2023-04-11T02:06:02.710Z,5.26
2023-04-11T02:06:34.695Z,5.26
2023-04-11T02:07:06.667Z,5.26
2023-04-11T02:07:38.606Z,5.26
2023-04-11T02:08:10.715Z,5.26
2023-04-11T02:08:37.030Z,5.26
2023-04-11T02:08:58.595Z,5.26
2023-04-11T02:09:30.607Z,5.26
2023-04-11T02:10:04.310Z,5.26
2023-04-11T02:10:34.665Z,5.21
2023-04-11T02:11:06.578Z,5.21
2023-04-11T02:11:38.719Z,5.21
2023-04-11T02:12:10.749Z,5.21
2023-04-11T02:12:36.812Z,5.04
2023-04-11T02:13:14.611Z,5.04
2023-04-11T02:13:36.673Z,5.09
2023-04-11T02:14:02.717Z,5.09
2023-04-11T02:14:34.632Z,5.09
2023-04-11T02:15:07.930Z,5.09
2023-04-11T02:15:38.684Z,5.09
2023-04-11T02:16:10.823Z,5.26
2023-04-11T02:16:36.781Z,5.26
2023-04-11T02:16:59.033Z,5.09
2023-04-11T02:17:30.669Z,5.09
2023-04-11T02:18:02.798Z,5.26
2023-04-11T02:18:34.577Z,5.26
2023-04-11T02:19:06.636Z,5.26
2023-04-11T02:19:38.509Z,5.26
2023-04-11T02:20:11.534Z,5.26
2023-04-11T02:20:36.642Z,5.26
2023-04-11T02:20:58.889Z,5.26
2023-04-11T02:21:30.749Z,5.26
2023-04-11T02:22:02.649Z,5.26
2023-04-11T02:22:34.908Z,5.26
2023-04-11T02:23:06.767Z,5.36
2023-04-11T02:23:38.605Z,5.36
2023-04-11T02:24:10.666Z,5.36
2023-04-11T02:24:36.777Z,5.36
2023-04-11T02:24:58.555Z,5.36
2023-04-11T02:25:31.024Z,5.36
2023-04-11T02:26:03.039Z,5.36
2023-04-11T02:26:34.801Z,5.36
2023-04-11T02:27:06.630Z,5.20
2023-04-11T02:27:38.772Z,5.20
2023-04-11T02:28:10.770Z,5.20
2023-04-11T02:28:36.821Z,5.20
2023-04-11T02:28:58.528Z,5.20
2023-04-11T02:29:30.634Z,5.36
2023-04-11T02:30:05.119Z,5.20
2023-04-11T02:30:35.053Z,5.36
2023-04-11T02:31:06.787Z,5.20
2023-04-11T02:31:38.688Z,5.20
2023-04-11T02:32:10.866Z,5.20
2023-04-11T02:32:36.764Z,5.20
2023-04-11T02:32:58.682Z,5.20
2023-04-11T02:33:30.940Z,5.20
2023-04-11T02:34:02.718Z,5.32
2023-04-11T02:34:34.663Z,5.32
2023-04-11T02:35:07.803Z,5.32
2023-04-11T02:35:38.598Z,5.32
2023-04-11T02:36:10.690Z,5.32
2023-04-11T02:36:37.824Z,5.32
2023-04-11T02:36:58.910Z,5.32
2023-04-11T02:37:30.623Z,5.32
2023-04-11T02:38:02.799Z,5.43
2023-04-11T02:38:34.611Z,5.43
2023-04-11T02:39:07.036Z,5.26
2023-04-11T02:39:38.534Z,5.26
2023-04-11T02:40:11.120Z,5.26
2023-04-11T02:40:36.650Z,5.26
2023-04-11T02:40:59.267Z,5.09
2023-04-11T02:41:30.632Z,5.09
2023-04-11T02:42:02.675Z,4.91
2023-04-11T02:42:34.694Z,5.19
2023-04-11T02:43:06.643Z,5.19
2023-04-11T02:43:38.521Z,5.19
2023-04-11T02:44:11.537Z,5.19
2023-04-11T02:44:36.740Z,5.19
2023-04-11T02:44:58.614Z,5.19
2023-04-11T02:45:31.734Z,5.24
2023-04-11T02:46:12.649Z,5.07
2023-04-11T02:46:35.008Z,5.07
2023-04-11T02:47:06.655Z,5.07
2023-04-11T02:47:38.704Z,5.07
2023-04-11T02:48:11.205Z,5.07
2023-04-11T02:48:36.605Z,5.07
2023-04-11T02:48:58.533Z,5.07
2023-04-11T02:49:30.636Z,5.07
2023-04-11T02:50:04.240Z,5.17
2023-04-11T02:50:34.728Z,5.17
2023-04-11T02:51:06.642Z,5.17
2023-04-11T02:51:38.845Z,5.17
2023-04-11T02:52:10.723Z,5.17
2023-04-11T02:52:36.687Z,5.17
2023-04-11T02:52:58.751Z,5.17
2023-04-11T02:53:30.697Z,5.17
2023-04-11T02:54:02.735Z,5.17
2023-04-11T02:54:34.495Z,5.07
2023-04-11T02:55:07.400Z,5.07
2023-04-11T02:55:38.620Z,5.07
2023-04-11T02:56:10.724Z,5.07
2023-04-11T02:56:36.702Z,5.07
2023-04-11T02:56:58.581Z,5.07
2023-04-11T02:57:30.787Z,5.17
2023-04-11T02:58:02.685Z,5.17
2023-04-11T02:58:34.582Z,5.17
2023-04-11T02:59:06.831Z,5.17
2023-04-11T02:59:38.499Z,5.17
2023-04-11T03:00:12.769Z,5.17
2023-04-11T03:00:36.808Z,5.17
2023-04-11T03:00:59.788Z,5.17
2023-04-11T03:01:31.083Z,5.17
2023-04-11T03:02:02.907Z,5.17
2023-04-11T03:02:34.834Z,5.17
2023-04-11T03:03:06.881Z,5.07
2023-04-11T03:03:38.674Z,5.07
2023-04-11T03:04:10.844Z,5.07
2023-04-11T03:04:36.778Z,5.07
2023-04-11T03:04:58.799Z,5.07
2023-04-11T03:05:31.133Z,5.17
2023-04-11T03:06:02.676Z,5.17
2023-04-11T03:06:34.566Z,5.17
2023-04-11T03:07:06.613Z,5.17
2023-04-11T03:07:38.580Z,5.17
2023-04-11T03:08:10.790Z,5.17
2023-04-11T03:08:36.827Z,5.17
2023-04-11T03:08:58.756Z,5.17
2023-04-11T03:09:30.738Z,5.17
2023-04-11T03:10:03.850Z,5.17
2023-04-11T03:10:34.582Z,5.17
2023-04-11T03:11:06.743Z,5.17
2023-04-11T03:11:38.539Z,5.17
2023-04-11T03:12:11.123Z,5.01
2023-04-11T03:12:36.671Z,5.01
2023-04-11T03:12:58.563Z,5.17
2023-04-11T03:13:30.617Z,5.01
2023-04-11T03:14:02.686Z,5.01
2023-04-11T03:14:34.654Z,5.17
2023-04-11T03:15:07.921Z,5.01
2023-04-11T03:15:38.680Z,5.01
2023-04-11T03:16:10.871Z,5.01
2023-04-11T03:16:36.695Z,5.13
2023-04-11T03:16:58.680Z,5.13
2023-04-11T03:17:30.669Z,5.29
2023-04-11T03:18:02.693Z,5.29
2023-04-11T03:18:34.549Z,5.29
2023-04-11T03:19:06.620Z,5.29
2023-04-11T03:19:38.625Z,5.29
2023-04-11T03:20:11.282Z,5.29
2023-04-11T03:20:36.704Z,5.29
2023-04-11T03:20:59.563Z,5.29
2023-04-11T03:21:30.595Z,5.29
2023-04-11T03:22:02.694Z,5.17
2023-04-11T03:22:35.648Z,5.17
2023-04-11T03:23:06.831Z,5.17
2023-04-11T03:23:38.702Z,5.17
2023-04-11T03:24:10.654Z,5.17
2023-04-11T03:24:36.646Z,5.17
2023-04-11T03:24:58.598Z,5.17
2023-04-11T03:25:31.137Z,5.17
2023-04-11T03:26:02.655Z,5.17
2023-04-11T03:26:34.524Z,5.17
2023-04-11T03:27:06.631Z,5.35
2023-04-11T03:27:39.045Z,5.35
2023-04-11T03:28:10.717Z,5.17
2023-04-11T03:28:36.750Z,5.35
2023-04-11T03:28:58.690Z,5.35
2023-04-11T03:29:30.763Z,5.35
2023-04-11T03:30:04.895Z,5.24
2023-04-11T03:30:34.642Z,5.24
2023-04-11T03:31:06.675Z,5.24
2023-04-11T03:31:38.606Z,5.24
2023-04-11T03:32:10.820Z,5.24
2023-04-11T03:32:36.756Z,5.24
2023-04-11T03:32:58.889Z,5.24
2023-04-11T03:33:30.641Z,5.24
2023-04-11T03:34:02.667Z,5.37
2023-04-11T03:34:34.590Z,5.19
2023-04-11T03:35:07.484Z,5.19
2023-04-11T03:35:38.680Z,5.19
2023-04-11T03:36:10.798Z,5.19
2023-04-11T03:36:36.714Z,5.19
2023-04-11T03:36:58.708Z,5.19
2023-04-11T03:37:32.106Z,5.19
2023-04-11T03:38:02.788Z,5.19
2023-04-11T03:38:34.667Z,5.19
2023-04-11T03:39:06.658Z,5.37
2023-04-11T03:39:38.660Z,5.37
2023-04-11T03:40:11.173Z,5.19
2023-04-11T03:40:36.764Z,5.37
2023-04-11T03:40:59.006Z,5.37
2023-04-11T03:41:30.641Z,5.37
2023-04-11T03:42:02.725Z,5.37
2023-04-11T03:42:34.651Z,5.37
2023-04-11T03:43:06.645Z,5.37
2023-04-11T03:43:38.544Z,5.37
2023-04-11T03:44:10.628Z,5.37
2023-04-11T03:44:36.646Z,5.37
2023-04-11T03:44:59.070Z,5.37
2023-04-11T03:45:31.615Z,5.53
2023-04-11T03:46:02.789Z,5.53
2023-04-11T03:46:35.138Z,5.53
2023-04-11T03:47:06.669Z,5.53
2023-04-11T03:47:38.724Z,5.53
2023-04-11T03:48:10.716Z,5.43
2023-04-11T03:48:37.057Z,5.43
2023-04-11T03:48:58.765Z,5.43
2023-04-11T03:49:30.611Z,5.43
2023-04-11T03:50:03.972Z,5.43
2023-04-11T03:50:34.995Z,5.59
2023-04-11T03:51:06.652Z,5.59
2023-04-11T03:51:38.835Z,5.59
2023-04-11T03:52:11.009Z,5.59
2023-04-11T03:52:37.340Z,5.59
2023-04-11T03:52:58.605Z,5.32
2023-04-11T03:53:30.670Z,5.48
2023-04-11T03:54:02.742Z,5.48
2023-04-11T03:54:34.579Z,5.32
2023-04-11T03:55:07.457Z,5.32
2023-04-11T03:55:38.772Z,5.32
2023-04-11T03:56:10.820Z,5.59
2023-04-11T03:56:36.855Z,5.43
2023-04-11T03:56:58.625Z,5.59
2023-04-11T03:57:30.588Z,5.43
2023-04-11T03:58:02.876Z,5.43
2023-04-11T03:58:34.762Z,5.43
2023-04-11T03:59:06.665Z,5.43
2023-04-11T03:59:38.947Z,5.43
2023-04-11T04:00:11.653Z,5.43
2023-04-11T04:00:36.994Z,5.43
2023-04-11T04:00:59.057Z,5.43
2023-04-11T04:01:30.748Z,5.43
2023-04-11T04:02:02.880Z,5.43
2023-04-11T04:02:34.686Z,5.59
2023-04-11T04:03:06.868Z,5.43
2023-04-11T04:03:38.893Z,5.59
2023-04-11T04:04:11.425Z,5.59
2023-04-11T04:04:36.935Z,5.59
2023-04-11T04:04:58.584Z,5.59
2023-04-11T04:05:30.996Z,5.43
2023-04-11T04:06:02.796Z,5.43
2023-04-11T04:06:34.620Z,5.43
2023-04-11T04:07:06.745Z,5.59
2023-04-11T04:07:38.531Z,5.59
2023-04-11T04:08:10.676Z,5.59
2023-04-11T04:08:36.752Z,5.59
2023-04-11T04:08:58.685Z,5.59
2023-04-11T04:09:30.822Z,5.59
2023-04-11T04:10:04.057Z,5.59
2023-04-11T04:10:34.597Z,5.59
2023-04-11T04:11:06.702Z,5.59
2023-04-11T04:11:38.540Z,5.59
2023-04-11T04:12:10.831Z,5.59
2023-04-11T04:12:36.707Z,5.59
2023-04-11T04:12:58.713Z,5.59
2023-04-11T04:13:30.743Z,5.59
2023-04-11T04:14:02.649Z,5.59
2023-04-11T04:14:35.024Z,5.59
2023-04-11T04:15:08.318Z,5.59
2023-04-11T04:15:38.671Z,5.59
2023-04-11T04:16:10.950Z,5.59
2023-04-11T04:16:36.818Z,5.59
2023-04-11T04:16:58.660Z,5.75
2023-04-11T04:17:30.715Z,5.65
2023-04-11T04:18:02.806Z,5.65
2023-04-11T04:18:34.592Z,5.65
2023-04-11T04:19:06.707Z,5.65
2023-04-11T04:19:38.554Z,5.65
2023-04-11T04:20:11.983Z,5.65
2023-04-11T04:20:36.677Z,5.65
2023-04-11T04:20:59.006Z,5.65
2023-04-11T04:21:30.689Z,5.65
2023-04-11T04:22:02.717Z,5.65
2023-04-11T04:22:34.631Z,5.65
2023-04-11T04:23:06.737Z,5.48
2023-04-11T04:23:38.635Z,5.65
2023-04-11T04:24:10.691Z,5.65
2023-04-11T04:24:36.685Z,5.65
2023-04-11T04:24:58.927Z,5.65
2023-04-11T04:25:31.015Z,5.65
2023-04-11T04:26:02.793Z,5.65
2023-04-11T04:26:34.568Z,5.65
2023-04-11T04:27:06.750Z,5.65
2023-04-11T04:27:38.905Z,5.65
2023-04-11T04:28:10.944Z,5.65
2023-04-11T04:28:36.808Z,5.65
2023-04-11T04:28:58.681Z,5.65
2023-04-11T04:29:30.621Z,5.53
2023-04-11T04:30:04.927Z,5.53
2023-04-11T04:30:34.662Z,5.53
2023-04-11T04:31:06.670Z,5.53
2023-04-11T04:31:38.592Z,5.53
2023-04-11T04:32:10.917Z,5.53
2023-04-11T04:32:36.726Z,5.53
2023-04-11T04:32:58.690Z,5.69
2023-04-11T04:33:31.072Z,5.69
2023-04-11T04:34:02.771Z,5.69
2023-04-11T04:34:34.623Z,5.69
2023-04-11T04:35:07.566Z,5.69
2023-04-11T04:35:38.578Z,5.69
2023-04-11T04:36:10.756Z,5.69
2023-04-11T04:36:36.723Z,5.69
2023-04-11T04:36:58.722Z,5.58
2023-04-11T04:37:30.903Z,5.58
2023-04-11T04:38:02.779Z,5.58
2023-04-11T04:38:34.571Z,5.58
2023-04-11T04:39:06.945Z,5.58
2023-04-11T04:39:38.655Z,5.58
2023-04-11T04:40:11.254Z,5.58
2023-04-11T04:40:36.724Z,5.58
2023-04-11T04:40:59.036Z,5.58
2023-04-11T04:41:30.678Z,5.74
2023-04-11T04:42:02.749Z,5.74
2023-04-11T04:42:34.651Z,5.74
2023-04-11T04:43:06.853Z,5.74
2023-04-11T04:43:38.607Z,5.74
2023-04-11T04:44:10.937Z,5.74
2023-04-11T04:44:36.730Z,5.74
2023-04-11T04:44:58.937Z,5.69
2023-04-11T04:45:31.862Z,5.69
2023-04-11T04:46:02.958Z,5.69
2023-04-11T04:46:34.797Z,5.69
2023-04-11T04:47:06.985Z,5.69
2023-04-11T04:47:38.916Z,5.69
2023-04-11T04:48:10.982Z,5.69
2023-04-11T04:48:36.986Z,5.69
2023-04-11T04:49:00.978Z,5.69
2023-04-11T04:49:30.816Z,5.69
2023-04-11T04:50:04.468Z,5.69
2023-04-11T04:50:34.711Z,5.69
2023-04-11T04:51:07.282Z,5.69
2023-04-11T04:51:38.944Z,5.69
2023-04-11T04:52:11.292Z,5.69
2023-04-11T04:52:36.878Z,5.69
2023-04-11T04:52:59.134Z,5.69
2023-04-11T04:53:30.977Z,5.69
2023-04-11T04:54:03.098Z,5.69
2023-04-11T04:54:34.804Z,5.69
2023-04-11T04:55:07.645Z,5.69
2023-04-11T04:55:38.751Z,5.85
2023-04-11T04:56:11.203Z,5.85
2023-04-11T04:56:37.461Z,5.85
2023-04-11T04:56:58.832Z,5.85
2023-04-11T04:57:30.978Z,5.85
2023-04-11T04:58:03.348Z,5.85
2023-04-11T04:58:35.055Z,5.85
2023-04-11T04:59:07.090Z,5.85
2023-04-11T04:59:38.811Z,5.74
2023-04-11T05:00:11.992Z,5.74
2023-04-11T05:00:37.115Z,5.74
2023-04-11T05:00:59.421Z,5.74
2023-04-11T05:01:30.985Z,5.74
2023-04-11T05:02:03.297Z,5.74
2023-04-11T05:02:35.015Z,5.74
2023-04-11T05:03:07.621Z,5.74
2023-04-11T05:03:44.474Z,5.74
2023-04-11T05:04:11.173Z,5.74
2023-04-11T05:04:37.569Z,5.74
2023-04-11T05:05:00.999Z,5.74
2023-04-11T05:05:30.951Z,5.74
2023-04-11T05:06:02.951Z,5.91
2023-04-11T05:06:35.137Z,5.91
2023-04-11T05:07:07.437Z,5.74
2023-04-11T05:07:38.851Z,5.74
2023-04-11T05:08:11.584Z,5.74
2023-04-11T05:08:37.131Z,5.74
2023-04-11T05:08:58.944Z,5.74
2023-04-11T05:09:30.782Z,5.91
2023-04-11T05:10:04.495Z,5.91
2023-04-11T05:10:34.838Z,5.74
2023-04-11T05:11:07.201Z,5.91
2023-04-11T05:11:38.805Z,5.91
2023-04-11T05:12:11.015Z,5.91
2023-04-11T05:12:36.888Z,5.91
2023-04-11T05:12:59.041Z,5.91
2023-04-11T05:13:30.830Z,5.91
2023-04-11T05:14:03.217Z,5.91
2023-04-11T05:14:34.880Z,5.91
2023-04-11T05:15:08.512Z,5.91
2023-04-11T05:15:38.833Z,5.91
2023-04-11T05:16:11.060Z,5.80
2023-04-11T05:16:36.952Z,5.80
2023-04-11T05:16:59.717Z,5.80
2023-04-11T05:17:30.852Z,5.80
2023-04-11T05:18:03.147Z,5.80
2023-04-11T05:18:34.823Z,5.91
2023-04-11T05:19:06.959Z,5.91
2023-04-11T05:19:38.736Z,5.91
2023-04-11T05:20:11.903Z,5.91
2023-04-11T05:20:37.019Z,5.91
2023-04-11T05:20:59.096Z,5.91
2023-04-11T05:21:30.870Z,5.91
2023-04-11T05:22:03.083Z,5.91
2023-04-11T05:22:34.912Z,5.91
2023-04-11T05:23:06.969Z,5.91
2023-04-11T05:23:38.734Z,5.91
2023-04-11T05:24:10.889Z,5.91
2023-04-11T05:24:37.262Z,5.91
2023-04-11T05:24:59.554Z,5.91
2023-04-11T05:25:31.245Z,5.91
2023-04-11T05:26:03.142Z,5.80
2023-04-11T05:26:34.884Z,5.80
2023-04-11T05:27:06.944Z,5.80
2023-04-11T05:27:38.971Z,5.80
2023-04-11T05:28:10.953Z,5.80
2023-04-11T05:28:37.031Z,5.80
2023-04-11T05:28:59.275Z,5.95
2023-04-11T05:29:30.875Z,5.95
2023-04-11T05:30:05.384Z,5.95
2023-04-11T05:30:34.930Z,5.95
2023-04-11T05:31:07.066Z,5.95
2023-04-11T05:31:38.806Z,5.95
2023-04-11T05:32:10.973Z,5.95
2023-04-11T05:32:37.330Z,5.95
2023-04-11T05:32:58.923Z,5.95
2023-04-11T05:33:30.998Z,5.95
2023-04-11T05:34:03.049Z,5.95
2023-04-11T05:34:34.785Z,5.95
2023-04-11T05:35:07.753Z,5.95
2023-04-11T05:35:38.790Z,5.95
2023-04-11T05:36:11.158Z,5.95
2023-04-11T05:36:36.958Z,5.95
2023-04-11T05:36:59.014Z,5.95
2023-04-11T05:37:30.845Z,5.95
2023-04-11T05:38:03.048Z,5.95
2023-04-11T05:38:34.824Z,5.95
2023-04-11T05:39:06.991Z,5.95
2023-04-11T05:39:38.880Z,5.95
2023-04-11T05:40:11.515Z,5.95
2023-04-11T05:40:37.010Z,5.95
2023-04-11T05:40:59.158Z,5.95
2023-04-11T05:41:31.031Z,5.95
2023-04-11T05:42:03.042Z,5.95
2023-04-11T05:42:34.750Z,5.95
2023-04-11T05:43:06.908Z,5.83
2023-04-11T05:43:38.728Z,5.95
2023-04-11T05:44:11.374Z,5.95
2023-04-11T05:44:37.043Z,5.95
2023-04-11T05:44:58.737Z,5.83
2023-04-11T05:45:31.770Z,5.83
2023-04-11T05:46:03.001Z,5.83
2023-04-11T05:46:35.715Z,5.83
2023-04-11T05:47:06.926Z,5.83
2023-04-11T05:47:39.182Z,5.83
2023-04-11T05:48:11.344Z,5.68
2023-04-11T05:48:36.964Z,5.68
2023-04-11T05:48:59.828Z,5.68
2023-04-11T05:49:30.827Z,5.68
2023-04-11T05:50:04.803Z,5.68
2023-04-11T05:50:34.987Z,5.68
2023-04-11T05:51:07.055Z,5.68
2023-04-11T05:51:38.755Z,5.68
2023-04-11T05:52:10.870Z,5.68
2023-04-11T05:52:36.898Z,5.68
2023-04-11T05:52:58.833Z,5.68
2023-04-11T05:53:30.851Z,5.68
2023-04-11T05:54:02.943Z,5.68
2023-04-11T05:54:34.988Z,5.68
2023-04-11T05:55:07.825Z,5.68
2023-04-11T05:55:38.870Z,5.68
2023-04-11T05:56:10.936Z,5.68
2023-04-11T05:56:37.108Z,5.68
2023-04-11T05:56:58.822Z,5.68
2023-04-11T05:57:30.856Z,5.68
2023-04-11T05:58:02.918Z,5.68
2023-04-11T05:58:35.382Z,5.68
2023-04-11T05:59:07.016Z,5.68
2023-04-11T05:59:38.848Z,5.68
2023-04-11T06:00:11.867Z,5.68
2023-04-11T06:00:37.199Z,5.68
2023-04-11T06:00:59.437Z,5.68
2023-04-11T06:01:30.887Z,5.68
2023-04-11T06:02:03.006Z,5.68
2023-04-11T06:02:35.128Z,5.68
2023-04-11T06:03:07.099Z,5.68
2023-04-11T06:03:39.065Z,5.68
2023-04-11T06:04:11.221Z,5.51
2023-04-11T06:04:37.170Z,5.51
2023-04-11T06:04:58.792Z,5.51
2023-04-11T06:05:32.514Z,5.51
2023-04-11T06:06:02.941Z,5.51
2023-04-11T06:06:34.914Z,5.51
2023-04-11T06:07:06.951Z,5.51
2023-04-11T06:07:38.776Z,5.51
2023-04-11T06:08:10.889Z,5.51
2023-04-11T06:08:36.935Z,5.51
2023-04-11T06:08:59.124Z,5.51
2023-04-11T06:09:32.729Z,5.51
2023-04-11T06:10:04.551Z,5.51
2023-04-11T06:10:34.763Z,5.51
2023-04-11T06:11:06.868Z,5.51
2023-04-11T06:11:38.889Z,5.51
2023-04-11T06:12:11.682Z,5.63
2023-04-11T06:12:37.447Z,5.51
2023-04-11T06:12:58.825Z,5.47
2023-04-11T06:13:30.843Z,5.47
2023-04-11T06:14:03.030Z,5.47
2023-04-11T06:14:34.756Z,5.35
2023-04-11T06:15:08.276Z,5.35
2023-04-11T06:15:38.776Z,5.47
2023-04-11T06:16:11.011Z,5.35
2023-04-11T06:16:36.868Z,5.35
2023-04-11T06:16:58.718Z,5.35
2023-04-11T06:17:31.464Z,5.35
2023-04-11T06:18:03.028Z,5.47
2023-04-11T06:18:34.797Z,5.47
2023-04-11T06:19:07.099Z,5.47
2023-04-11T06:19:38.831Z,5.47
2023-04-11T06:20:11.354Z,5.32
2023-04-11T06:20:36.966Z,5.32
2023-04-11T06:20:59.315Z,5.32
2023-04-11T06:21:31.512Z,5.32
2023-04-11T06:22:02.983Z,5.32
2023-04-11T06:22:35.265Z,5.32
2023-04-11T06:23:06.984Z,5.32
2023-04-11T06:23:38.793Z,5.32
2023-04-11T06:24:10.986Z,5.32
2023-04-11T06:24:36.942Z,5.47
2023-04-11T06:24:58.889Z,5.47
2023-04-11T06:25:31.432Z,5.32
2023-04-11T06:26:02.839Z,5.47
2023-04-11T06:26:35.180Z,5.32
2023-04-11T06:27:07.185Z,5.32
2023-04-11T06:27:39.080Z,5.32
2023-04-11T06:28:11.129Z,5.47
2023-04-11T06:28:37.047Z,5.47
2023-04-11T06:28:58.855Z,5.32
2023-04-11T06:29:30.955Z,5.32
2023-04-11T06:30:05.286Z,5.32
2023-04-11T06:30:35.552Z,5.32
2023-04-11T06:31:07.114Z,5.32
2023-04-11T06:31:39.014Z,5.32
2023-04-11T06:32:10.979Z,5.32
2023-04-11T06:32:37.101Z,5.32
2023-04-11T06:32:58.874Z,5.32
2023-04-11T06:33:31.480Z,5.32
2023-04-11T06:34:03.112Z,5.32
2023-04-11T06:34:34.989Z,5.32
2023-04-11T06:35:07.881Z,5.32
2023-04-11T06:35:38.834Z,5.32
2023-04-11T06:36:10.938Z,5.32
2023-04-11T06:36:37.458Z,5.32
2023-04-11T06:36:58.753Z,5.32
2023-04-11T06:37:30.769Z,5.32
2023-04-11T06:38:02.996Z,5.15
2023-04-11T06:38:35.001Z,5.15
2023-04-11T06:39:06.960Z,5.15